sensor_id;sensor_type;location;lat;lon;timestamp;pressure;altitude;pressure_sealevel;temperature;humidity
81005;BME280;70472;47.592;17.640;2024-03-08T00:00:17;100115.88;;;5.20;94.40
81005;BME280;70472;47.592;17.640;2024-03-08T00:00:50;100120.34;;;5.19;94.47
81005;BME280;70472;47.592;17.640;2024-03-08T00:01:22;100115.88;;;5.20;94.78
81005;BME280;70472;47.592;17.640;2024-03-08T00:01:54;100112.13;;;5.22;94.54
81005;BME280;70472;47.592;17.640;2024-03-08T00:02:27;100118.00;;;5.26;94.85
81005;BME280;70472;47.592;17.640;2024-03-08T00:02:59;100113.78;;;5.23;94.38
81005;BME280;70472;47.592;17.640;2024-03-08T00:03:32;100121.31;;;5.18;94.54
81005;BME280;70472;47.592;17.640;2024-03-08T00:04:04;100121.56;;;5.15;94.01
81005;BME280;70472;47.592;17.640;2024-03-08T00:04:37;100117.97;;;5.16;94.34
81005;BME280;70472;47.592;17.640;2024-03-08T00:05:09;100122.31;;;5.17;94.59
81005;BME280;70472;47.592;17.640;2024-03-08T00:05:42;100119.75;;;5.16;94.58
81005;BME280;70472;47.592;17.640;2024-03-08T00:06:14;100121.31;;;5.18;94.31
81005;BME280;70472;47.592;17.640;2024-03-08T00:06:47;100126.50;;;5.20;94.28
81005;BME280;70472;47.592;17.640;2024-03-08T00:07:21;100121.03;;;5.21;94.61
81005;BME280;70472;47.592;17.640;2024-03-08T00:07:53;100122.63;;;5.24;94.88
81005;BME280;70472;47.592;17.640;2024-03-08T00:08:26;100118.97;;;5.25;94.58
81005;BME280;70472;47.592;17.640;2024-03-08T00:08:58;100117.16;;;5.25;94.46
81005;BME280;70472;47.592;17.640;2024-03-08T00:09:31;100120.50;;;5.18;94.78
81005;BME280;70472;47.592;17.640;2024-03-08T00:10:09;100121.31;;;5.18;94.31
81005;BME280;70472;47.592;17.640;2024-03-08T00:10:42;100122.75;;;5.22;94.35
81005;BME280;70472;47.592;17.640;2024-03-08T00:11:15;100119.13;;;5.23;94.12
81005;BME280;70472;47.592;17.640;2024-03-08T00:11:48;100127.53;;;5.28;94.34
81005;BME280;70472;47.592;17.640;2024-03-08T00:12:21;100116.63;;;5.31;94.24
81005;BME280;70472;47.592;17.640;2024-03-08T00:12:54;100122.94;;;5.30;94.45
81005;BME280;70472;47.592;17.640;2024-03-08T00:13:27;100114.88;;;5.21;95.04
81005;BME280;70472;47.592;17.640;2024-03-08T00:14:00;100121.63;;;5.25;94.90
81005;BME280;70472;47.592;17.640;2024-03-08T00:14:33;100122.34;;;5.27;95.50
81005;BME280;70472;47.592;17.640;2024-03-08T00:15:05;100123.91;;;5.29;95.54
81005;BME280;70472;47.592;17.640;2024-03-08T00:15:38;100121.94;;;5.31;94.87
81005;BME280;70472;47.592;17.640;2024-03-08T00:16:11;100127.41;;;5.30;94.94
81005;BME280;70472;47.592;17.640;2024-03-08T00:16:43;100124.59;;;5.31;95.09
81005;BME280;70472;47.592;17.640;2024-03-08T00:17:17;100121.38;;;5.28;94.82
81005;BME280;70472;47.592;17.640;2024-03-08T00:17:49;100124.88;;;5.28;94.95
81005;BME280;70472;47.592;17.640;2024-03-08T00:18:22;100124.16;;;5.26;95.07
81005;BME280;70472;47.592;17.640;2024-03-08T00:18:54;100121.78;;;5.23;95.25
81005;BME280;70472;47.592;17.640;2024-03-08T00:19:27;100125.41;;;5.22;94.72
81005;BME280;70472;47.592;17.640;2024-03-08T00:19:59;100122.75;;;5.22;94.55
81005;BME280;70472;47.592;17.640;2024-03-08T00:20:32;100125.97;;;5.26;95.03
81005;BME280;70472;47.592;17.640;2024-03-08T00:21:05;100124.69;;;5.20;94.07
81005;BME280;70472;47.592;17.640;2024-03-08T00:21:37;100125.81;;;5.18;94.84
81005;BME280;70472;47.592;17.640;2024-03-08T00:22:09;100124.13;;;5.17;94.40
81005;BME280;70472;47.592;17.640;2024-03-08T00:22:42;100131.97;;;5.18;94.97
81005;BME280;70472;47.592;17.640;2024-03-08T00:23:14;100126.88;;;5.15;95.00
81005;BME280;70472;47.592;17.640;2024-03-08T00:23:47;100128.31;;;5.19;94.67
81005;BME280;70472;47.592;17.640;2024-03-08T00:24:19;100124.69;;;5.20;94.54
81005;BME280;70472;47.592;17.640;2024-03-08T00:24:51;100122.75;;;5.22;94.61
81005;BME280;70472;47.592;17.640;2024-03-08T00:25:26;100119.38;;;5.20;95.13
81005;BME280;70472;47.592;17.640;2024-03-08T00:25:59;100123.97;;;5.18;94.17
81005;BME280;70472;47.592;17.640;2024-03-08T00:26:31;100121.03;;;5.21;94.73
81005;BME280;70472;47.592;17.640;2024-03-08T00:27:04;100123.31;;;5.26;94.76
81005;BME280;70472;47.592;17.640;2024-03-08T00:27:37;100129.75;;;5.23;94.96
81005;BME280;70472;47.592;17.640;2024-03-08T00:28:10;100122.75;;;5.22;93.96
81005;BME280;70472;47.592;17.640;2024-03-08T00:28:42;100126.50;;;5.20;94.48
81005;BME280;70472;47.592;17.640;2024-03-08T00:29:15;100125.28;;;5.24;95.00
81005;BME280;70472;47.592;17.640;2024-03-08T00:29:47;100122.31;;;5.17;94.21
81005;BME280;70472;47.592;17.640;2024-03-08T00:30:20;100124.69;;;5.20;94.25
81005;BME280;70472;47.592;17.640;2024-03-08T00:30:52;100119.13;;;5.23;94.32
81005;BME280;70472;47.592;17.640;2024-03-08T00:31:24;100122.56;;;5.14;94.88
81005;BME280;70472;47.592;17.640;2024-03-08T00:31:57;100122.56;;;5.14;94.75
81005;BME280;70472;47.592;17.640;2024-03-08T00:32:29;100118.81;;;5.17;94.41
81005;BME280;70472;47.592;17.640;2024-03-08T00:33:02;100122.16;;;5.19;94.79
81005;BME280;70472;47.592;17.640;2024-03-08T00:33:34;100122.41;;;5.16;94.33
81005;BME280;70472;47.592;17.640;2024-03-08T00:34:07;100123.16;;;5.18;94.73
81005;BME280;70472;47.592;17.640;2024-03-08T00:34:39;100116.09;;;5.07;94.57
81005;BME280;70472;47.592;17.640;2024-03-08T00:35:11;100113.88;;;5.12;95.47
81005;BME280;70472;47.592;17.640;2024-03-08T00:35:44;100118.91;;;5.15;94.86
81005;BME280;70472;47.592;17.640;2024-03-08T00:36:16;100127.72;;;5.16;95.36
81005;BME280;70472;47.592;17.640;2024-03-08T00:36:49;100115.16;;;5.18;95.07
81005;BME280;70472;47.592;17.640;2024-03-08T00:37:21;100124.69;;;5.20;95.15
81005;BME280;70472;47.592;17.640;2024-03-08T00:37:54;100118.53;;;5.20;95.53
81005;BME280;70472;47.592;17.640;2024-03-08T00:38:26;100118.53;;;5.20;95.21
81005;BME280;70472;47.592;17.640;2024-03-08T00:38:59;100117.69;;;5.19;95.13
81005;BME280;70472;47.592;17.640;2024-03-08T00:39:32;100114.31;;;5.17;94.79
81005;BME280;70472;47.592;17.640;2024-03-08T00:40:04;100120.50;;;5.18;95.39
81005;BME280;70472;47.592;17.640;2024-03-08T00:40:37;100118.91;;;5.15;94.71
81005;BME280;70472;47.592;17.640;2024-03-08T00:41:09;100112.31;;;5.09;95.38
81005;BME280;70472;47.592;17.640;2024-03-08T00:41:42;100112.06;;;5.13;95.04
81005;BME280;70472;47.592;17.640;2024-03-08T00:42:14;100113.59;;;5.15;95.09
81005;BME280;70472;47.592;17.640;2024-03-08T00:42:47;100118.22;;;5.13;95.29
81005;BME280;70472;47.592;17.640;2024-03-08T00:43:19;100113.56;;;5.05;94.97
81005;BME280;70472;47.592;17.640;2024-03-08T00:43:51;100108.63;;;5.01;95.44
81005;BME280;70472;47.592;17.640;2024-03-08T00:44:24;100116.69;;;5.11;95.19
81005;BME280;70472;47.592;17.640;2024-03-08T00:44:58;100114.00;;;5.11;95.49
81005;BME280;70472;47.592;17.640;2024-03-08T00:45:30;100114.72;;;5.13;94.82
81005;BME280;70472;47.592;17.640;2024-03-08T00:46:03;100117.97;;;5.16;95.30
81005;BME280;70472;47.592;17.640;2024-03-08T00:46:35;100115.03;;;5.19;94.81
81005;BME280;70472;47.592;17.640;2024-03-08T00:47:08;100114.19;;;5.19;95.48
81005;BME280;70472;47.592;17.640;2024-03-08T00:47:40;100107.88;;;5.20;95.47
81005;BME280;70472;47.592;17.640;2024-03-08T00:48:13;100111.53;;;5.19;95.10
81005;BME280;70472;47.592;17.640;2024-03-08T00:48:46;100110.69;;;5.18;94.83
81005;BME280;70472;47.592;17.640;2024-03-08T00:49:19;100115.31;;;5.16;94.90
81005;BME280;70472;47.592;17.640;2024-03-08T00:49:51;100106.47;;;5.16;95.21
81005;BME280;70472;47.592;17.640;2024-03-08T00:50:23;100108.16;;;5.17;95.16
81005;BME280;70472;47.592;17.640;2024-03-08T00:50:56;100109.84;;;5.18;95.50
81005;BME280;70472;47.592;17.640;2024-03-08T00:51:28;100113.59;;;5.15;95.13
81005;BME280;70472;47.592;17.640;2024-03-08T00:52:01;100114.56;;;5.14;95.06
81005;BME280;70472;47.592;17.640;2024-03-08T00:52:33;100110.09;;;5.15;95.62
81005;BME280;70472;47.592;17.640;2024-03-08T00:53:05;100105.50;;;5.17;95.94
81005;BME280;70472;47.592;17.640;2024-03-08T00:53:38;100108.88;;;5.19;95.88
81005;BME280;70472;47.592;17.640;2024-03-08T00:54:11;100113.06;;;5.21;95.40
81005;BME280;70472;47.592;17.640;2024-03-08T00:54:44;100107.63;;;5.23;95.42
81005;BME280;70472;47.592;17.640;2024-03-08T00:55:16;100112.53;;;5.27;95.53
81005;BME280;70472;47.592;17.640;2024-03-08T00:55:49;100109.88;;;5.27;94.87
81005;BME280;70472;47.592;17.640;2024-03-08T00:56:22;100108.47;;;5.23;95.57
81005;BME280;70472;47.592;17.640;2024-03-08T00:56:55;100106.34;;;5.17;95.13
81005;BME280;70472;47.592;17.640;2024-03-08T00:57:27;100109.13;;;5.16;95.31
81005;BME280;70472;47.592;17.640;2024-03-08T00:58:00;100105.38;;;5.18;95.02
81005;BME280;70472;47.592;17.640;2024-03-08T00:58:33;100104.25;;;5.21;95.28
81005;BME280;70472;47.592;17.640;2024-03-08T00:59:07;100100.50;;;5.23;95.06
81005;BME280;70472;47.592;17.640;2024-03-08T00:59:39;100108.16;;;5.17;94.99
81005;BME280;70472;47.592;17.640;2024-03-08T01:00:12;100107.84;;;5.10;94.80
81005;BME280;70472;47.592;17.640;2024-03-08T01:00:45;100107.19;;;5.18;95.34
81005;BME280;70472;47.592;17.640;2024-03-08T01:01:19;100101.59;;;5.21;94.79
81005;BME280;70472;47.592;17.640;2024-03-08T01:01:51;100104.84;;;5.24;95.48
81005;BME280;70472;47.592;17.640;2024-03-08T01:02:24;100108.88;;;5.19;94.95
81005;BME280;70472;47.592;17.640;2024-03-08T01:02:56;100097.41;;;5.18;95.14
81005;BME280;70472;47.592;17.640;2024-03-08T01:03:30;100104.66;;;5.16;94.63
81005;BME280;70472;47.592;17.640;2024-03-08T01:04:02;100098.38;;;5.17;95.00
81005;BME280;70472;47.592;17.640;2024-03-08T01:04:35;100101.47;;;5.22;95.18
81005;BME280;70472;47.592;17.640;2024-03-08T01:05:08;100102.72;;;5.18;94.84
81005;BME280;70472;47.592;17.640;2024-03-08T01:05:43;100101.88;;;5.18;94.76
81005;BME280;70472;47.592;17.640;2024-03-08T01:06:16;100098.81;;;5.22;94.68
81005;BME280;70472;47.592;17.640;2024-03-08T01:06:48;100101.47;;;5.22;94.35
81005;BME280;70472;47.592;17.640;2024-03-08T01:07:23;100097.84;;;5.23;94.48
81005;BME280;70472;47.592;17.640;2024-03-08T01:07:55;100098.94;;;5.21;95.16
81005;BME280;70472;47.592;17.640;2024-03-08T01:08:28;100101.72;;;5.19;94.74
81005;BME280;70472;47.592;17.640;2024-03-08T01:09:00;100094.97;;;5.15;94.93
81005;BME280;70472;47.592;17.640;2024-03-08T01:09:33;100097.41;;;5.18;94.74
81005;BME280;70472;47.592;17.640;2024-03-08T01:10:06;100101.88;;;5.18;94.97
81005;BME280;70472;47.592;17.640;2024-03-08T01:10:39;100093.84;;;5.08;94.64
81005;BME280;70472;47.592;17.640;2024-03-08T01:11:13;100096.09;;;5.13;95.61
81005;BME280;70472;47.592;17.640;2024-03-08T01:11:46;100094.41;;;5.12;94.66
81005;BME280;70472;47.592;17.640;2024-03-08T01:12:18;100097.22;;;5.10;94.89
81005;BME280;70472;47.592;17.640;2024-03-08T01:12:51;100093.84;;;5.08;94.79
81005;BME280;70472;47.592;17.640;2024-03-08T01:13:25;100091.03;;;5.09;94.43
81005;BME280;70472;47.592;17.640;2024-03-08T01:13:58;100099.88;;;5.10;95.05
81005;BME280;70472;47.592;17.640;2024-03-08T01:14:30;100096.25;;;5.11;94.67
81005;BME280;70472;47.592;17.640;2024-03-08T01:15:03;100100.31;;;5.15;95.19
81005;BME280;70472;47.592;17.640;2024-03-08T01:15:36;100093.59;;;5.11;95.27
81005;BME280;70472;47.592;17.640;2024-03-08T01:16:09;100094.41;;;5.12;94.58
81005;BME280;70472;47.592;17.640;2024-03-08T01:16:42;100095.97;;;5.14;95.11
81005;BME280;70472;47.592;17.640;2024-03-08T01:17:14;100098.38;;;5.17;94.83
81005;BME280;70472;47.592;17.640;2024-03-08T01:17:47;100092.59;;;5.12;95.14
81005;BME280;70472;47.592;17.640;2024-03-08T01:18:19;100094.88;;;5.17;94.70
81005;BME280;70472;47.592;17.640;2024-03-08T01:18:52;100090.41;;;5.17;95.13
81005;BME280;70472;47.592;17.640;2024-03-08T01:19:25;100093.31;;;5.14;94.99
81005;BME280;70472;47.592;17.640;2024-03-08T01:19:57;100091.63;;;5.13;95.39
81005;BME280;70472;47.592;17.640;2024-03-08T01:20:30;100089.94;;;5.12;95.53
81005;BME280;70472;47.592;17.640;2024-03-08T01:21:02;100092.22;;;5.17;95.28
81005;BME280;70472;47.592;17.640;2024-03-08T01:21:35;100086.31;;;5.13;94.87
81005;BME280;70472;47.592;17.640;2024-03-08T01:22:07;100098.91;;;5.11;95.17
81005;BME280;70472;47.592;17.640;2024-03-08T01:22:40;100088.25;;;5.11;94.84
81005;BME280;70472;47.592;17.640;2024-03-08T01:23:13;100089.66;;;5.15;94.66
81005;BME280;70472;47.592;17.640;2024-03-08T01:23:46;100088.72;;;5.16;94.74
81005;BME280;70472;47.592;17.640;2024-03-08T01:24:19;100093.75;;;5.19;94.94
81005;BME280;70472;47.592;17.640;2024-03-08T01:24:52;100083.81;;;5.21;95.34
81005;BME280;70472;47.592;17.640;2024-03-08T01:25:24;100089.03;;;5.23;94.51
81005;BME280;70472;47.592;17.640;2024-03-08T01:25:57;100087.06;;;5.25;94.08
81005;BME280;70472;47.592;17.640;2024-03-08T01:26:29;100094.91;;;5.26;94.32
81005;BME280;70472;47.592;17.640;2024-03-08T01:27:02;100087.34;;;5.22;94.81
81005;BME280;70472;47.592;17.640;2024-03-08T01:27:35;100080.22;;;5.22;94.44
81005;BME280;70472;47.592;17.640;2024-03-08T01:28:07;100088.59;;;5.27;93.88
81005;BME280;70472;47.592;17.640;2024-03-08T01:28:40;100081.03;;;5.23;93.99
81005;BME280;70472;47.592;17.640;2024-03-08T01:29:12;100082.13;;;5.20;93.51
81005;BME280;70472;47.592;17.640;2024-03-08T01:29:45;100084.69;;;5.22;94.02
81005;BME280;70472;47.592;17.640;2024-03-08T01:30:17;100087.72;;;5.17;94.08
81005;BME280;70472;47.592;17.640;2024-03-08T01:30:50;100090.00;;;5.22;94.85
81005;BME280;70472;47.592;17.640;2024-03-08T01:31:23;100086.22;;;5.24;94.63
81005;BME280;70472;47.592;17.640;2024-03-08T01:31:56;100085.53;;;5.22;94.35
81005;BME280;70472;47.592;17.640;2024-03-08T01:32:28;100089.28;;;5.20;94.86
81005;BME280;70472;47.592;17.640;2024-03-08T01:33:01;100090.13;;;5.20;94.07
81005;BME280;70472;47.592;17.640;2024-03-08T01:33:33;100085.78;;;5.19;94.66
81005;BME280;70472;47.592;17.640;2024-03-08T01:34:06;100085.19;;;5.16;95.04
81005;BME280;70472;47.592;17.640;2024-03-08T01:34:38;100085.06;;;5.17;95.20
81005;BME280;70472;47.592;17.640;2024-03-08T01:35:11;100085.91;;;5.18;94.58
81005;BME280;70472;47.592;17.640;2024-03-08T01:35:43;100087.72;;;5.17;94.36
81005;BME280;70472;47.592;17.640;2024-03-08T01:36:16;100088.25;;;5.11;94.36
81005;BME280;70472;47.592;17.640;2024-03-08T01:36:48;100085.53;;;5.01;95.03
81005;BME280;70472;47.592;17.640;2024-03-08T01:37:21;100082.75;;;5.03;94.48
81005;BME280;70472;47.592;17.640;2024-03-08T01:37:53;100085.69;;;5.00;94.53
81005;BME280;70472;47.592;17.640;2024-03-08T01:38:26;100086.78;;;4.97;94.06
81005;BME280;70472;47.592;17.640;2024-03-08T01:38:58;100082.03;;;5.01;95.07
81005;BME280;70472;47.592;17.640;2024-03-08T01:39:31;100084.88;;;5.09;94.68
81005;BME280;70472;47.592;17.640;2024-03-08T01:40:04;100086.25;;;5.03;95.01
81005;BME280;70472;47.592;17.640;2024-03-08T01:40:37;100088.78;;;5.05;95.19
81005;BME280;70472;47.592;17.640;2024-03-08T01:41:10;100078.56;;;5.00;94.66
81005;BME280;70472;47.592;17.640;2024-03-08T01:41:42;100078.28;;;5.03;94.82
81005;BME280;70472;47.592;17.640;2024-03-08T01:42:15;100079.00;;;5.05;94.75
81005;BME280;70472;47.592;17.640;2024-03-08T01:42:50;100078.72;;;5.08;94.85
81005;BME280;70472;47.592;17.640;2024-03-08T01:43:26;100082.66;;;5.14;95.21
81005;BME280;70472;47.592;17.640;2024-03-08T01:43:59;100080.28;;;5.11;95.00
81005;BME280;70472;47.592;17.640;2024-03-08T01:44:32;100075.66;;;5.13;95.53
81005;BME280;70472;47.592;17.640;2024-03-08T01:45:06;100087.59;;;5.19;95.43
81005;BME280;70472;47.592;17.640;2024-03-08T01:45:39;100075.13;;;5.19;95.64
81005;BME280;70472;47.592;17.640;2024-03-08T01:46:16;100074.88;;;5.22;94.93
81005;BME280;70472;47.592;17.640;2024-03-08T01:46:50;100079.63;;;5.19;95.04
81005;BME280;70472;47.592;17.640;2024-03-08T01:47:24;100073.19;;;5.21;95.01
81005;BME280;70472;47.592;17.640;2024-03-08T01:47:56;100076.72;;;5.22;95.51
81005;BME280;70472;47.592;17.640;2024-03-08T01:48:29;100083.81;;;5.21;95.80
81005;BME280;70472;47.592;17.640;2024-03-08T01:49:02;100076.81;;;5.20;94.91
81005;BME280;70472;47.592;17.640;2024-03-08T01:49:35;100080.91;;;5.24;94.87
81005;BME280;70472;47.592;17.640;2024-03-08T01:50:08;100079.66;;;5.28;94.68
81005;BME280;70472;47.592;17.640;2024-03-08T01:50:41;100078.84;;;5.28;94.65
81005;BME280;70472;47.592;17.640;2024-03-08T01:51:15;100081.16;;;5.21;94.42
81005;BME280;70472;47.592;17.640;2024-03-08T01:51:48;100081.88;;;5.23;94.89
81005;BME280;70472;47.592;17.640;2024-03-08T01:52:22;100083.16;;;5.29;94.96
81005;BME280;70472;47.592;17.640;2024-03-08T01:52:55;100077.84;;;5.29;95.18
81005;BME280;70472;47.592;17.640;2024-03-08T01:53:29;100070.97;;;5.26;94.66
81005;BME280;70472;47.592;17.640;2024-03-08T01:54:03;100078.84;;;5.28;94.54
81005;BME280;70472;47.592;17.640;2024-03-08T01:54:36;100077.97;;;5.27;94.40
81005;BME280;70472;47.592;17.640;2024-03-08T01:55:10;100077.72;;;5.30;94.23
81005;BME280;70472;47.592;17.640;2024-03-08T01:55:42;100085.84;;;5.29;94.20
81005;BME280;70472;47.592;17.640;2024-03-08T01:56:17;100077.56;;;5.32;93.92
81005;BME280;70472;47.592;17.640;2024-03-08T01:56:50;100076.88;;;5.30;94.28
81005;BME280;70472;47.592;17.640;2024-03-08T01:57:22;100076.03;;;5.29;94.04
81005;BME280;70472;47.592;17.640;2024-03-08T01:57:55;100080.63;;;5.27;94.34
81005;BME280;70472;47.592;17.640;2024-03-08T01:58:29;100077.25;;;5.25;93.75
81005;BME280;70472;47.592;17.640;2024-03-08T01:59:02;100074.03;;;5.22;93.95
81005;BME280;70472;47.592;17.640;2024-03-08T01:59:35;100079.75;;;5.17;93.51
81005;BME280;70472;47.592;17.640;2024-03-08T02:00:08;100081.56;;;5.17;94.53
81005;BME280;70472;47.592;17.640;2024-03-08T02:00:44;100089.09;;;5.12;94.01
81005;BME280;70472;47.592;17.640;2024-03-08T02:01:18;100075.53;;;5.15;94.40
81005;BME280;70472;47.592;17.640;2024-03-08T02:01:50;100078.50;;;5.21;93.83
81005;BME280;70472;47.592;17.640;2024-03-08T02:02:23;100076.56;;;5.23;94.70
81005;BME280;70472;47.592;17.640;2024-03-08T02:02:57;100077.13;;;5.27;94.53
81005;BME280;70472;47.592;17.640;2024-03-08T02:03:30;100080.63;;;5.27;94.45
81005;BME280;70472;47.592;17.640;2024-03-08T02:04:02;100077.13;;;5.27;94.40
81005;BME280;70472;47.592;17.640;2024-03-08T02:04:35;100073.19;;;5.21;94.63
81005;BME280;70472;47.592;17.640;2024-03-08T02:05:08;100083.56;;;5.24;94.15
81005;BME280;70472;47.592;17.640;2024-03-08T02:05:41;100076.28;;;5.26;94.08
81005;BME280;70472;47.592;17.640;2024-03-08T02:06:13;100077.66;;;5.21;94.53
81005;BME280;70472;47.592;17.640;2024-03-08T02:06:46;100080.31;;;5.21;94.56
81005;BME280;70472;47.592;17.640;2024-03-08T02:07:19;100080.91;;;5.24;94.74
81005;BME280;70472;47.592;17.640;2024-03-08T02:07:51;100076.44;;;5.25;94.60
81005;BME280;70472;47.592;17.640;2024-03-08T02:08:25;100077.66;;;5.21;94.21
81005;BME280;70472;47.592;17.640;2024-03-08T02:08:58;100078.91;;;5.17;93.85
81005;BME280;70472;47.592;17.640;2024-03-08T02:09:31;100081.28;;;5.10;94.01
81005;BME280;70472;47.592;17.640;2024-03-08T02:10:05;100085.91;;;5.18;94.64
81005;BME280;70472;47.592;17.640;2024-03-08T02:10:44;100074.88;;;5.22;94.28
81005;BME280;70472;47.592;17.640;2024-03-08T02:11:17;100080.22;;;5.22;94.70
81005;BME280;70472;47.592;17.640;2024-03-08T02:11:49;100077.78;;;5.19;93.76
81005;BME280;70472;47.592;17.640;2024-03-08T02:12:22;100073.91;;;5.23;94.48
81005;BME280;70472;47.592;17.640;2024-03-08T02:12:55;100075.84;;;5.21;94.17
81005;BME280;70472;47.592;17.640;2024-03-08T02:13:28;100078.50;;;5.21;94.75
81005;BME280;70472;47.592;17.640;2024-03-08T02:14:00;100085.53;;;5.22;94.62
81005;BME280;70472;47.592;17.640;2024-03-08T02:14:33;100072.75;;;5.16;94.01
81005;BME280;70472;47.592;17.640;2024-03-08T02:15:06;100071.78;;;5.17;93.48
81005;BME280;70472;47.592;17.640;2024-03-08T02:16:00;100075.97;;;5.20;93.87
81005;BME280;70472;47.592;17.640;2024-03-08T02:16:33;100075.97;;;5.20;93.93
81005;BME280;70472;47.592;17.640;2024-03-08T02:17:05;100075.97;;;5.20;93.87
81005;BME280;70472;47.592;17.640;2024-03-08T02:17:38;100074.03;;;5.22;94.49
81005;BME280;70472;47.592;17.640;2024-03-08T02:18:10;100077.41;;;5.24;94.20
81005;BME280;70472;47.592;17.640;2024-03-08T02:18:43;100064.25;;;5.22;94.19
81005;BME280;70472;47.592;17.640;2024-03-08T02:19:15;100072.75;;;5.16;93.52
81005;BME280;70472;47.592;17.640;2024-03-08T02:19:48;100070.34;;;5.13;93.95
81005;BME280;70472;47.592;17.640;2024-03-08T02:20:20;100072.03;;;5.14;93.77
81005;BME280;70472;47.592;17.640;2024-03-08T02:20:54;100071.19;;;5.14;94.27
81005;BME280;70472;47.592;17.640;2024-03-08T02:21:27;100076.13;;;5.18;94.45
81005;BME280;70472;47.592;17.640;2024-03-08T02:22:00;100071.50;;;5.20;94.31
81005;BME280;70472;47.592;17.640;2024-03-08T02:22:33;100073.91;;;5.23;94.32
81005;BME280;70472;47.592;17.640;2024-03-08T02:23:06;100067.31;;;5.27;93.96
81005;BME280;70472;47.592;17.640;2024-03-08T02:23:38;100069.03;;;5.28;94.30
81005;BME280;70472;47.592;17.640;2024-03-08T02:24:12;100068.06;;;5.29;93.92
81005;BME280;70472;47.592;17.640;2024-03-08T02:24:44;100061.75;;;5.30;94.28
81005;BME280;70472;47.592;17.640;2024-03-08T02:25:18;100072.09;;;5.33;94.18
81005;BME280;70472;47.592;17.640;2024-03-08T02:25:52;100073.22;;;5.31;94.15
81005;BME280;70472;47.592;17.640;2024-03-08T02:26:25;100070.97;;;5.26;93.88
81005;BME280;70472;47.592;17.640;2024-03-08T02:26:57;100068.44;;;5.25;94.98
81005;BME280;70472;47.592;17.640;2024-03-08T02:27:30;100075.19;;;5.29;94.52
81005;BME280;70472;47.592;17.640;2024-03-08T02:28:03;100072.53;;;5.29;94.38
81005;BME280;70472;47.592;17.640;2024-03-08T02:28:36;100078.69;;;5.29;94.36
81005;BME280;70472;47.592;17.640;2024-03-08T02:29:09;100071.09;;;5.25;95.06
81005;BME280;70472;47.592;17.640;2024-03-08T02:29:43;100072.63;;;5.27;93.96
81005;BME280;70472;47.592;17.640;2024-03-08T02:30:16;100078.84;;;5.28;94.09
81005;BME280;70472;47.592;17.640;2024-03-08T02:30:52;100071.25;;;5.23;94.51
81005;BME280;70472;47.592;17.640;2024-03-08T02:31:24;100070.41;;;5.23;94.46
81005;BME280;70472;47.592;17.640;2024-03-08T02:31:57;100072.94;;;5.24;94.13
81005;BME280;70472;47.592;17.640;2024-03-08T02:32:29;100071.94;;;5.25;94.14
81005;BME280;70472;47.592;17.640;2024-03-08T02:33:02;100069.88;;;5.29;94.48
81005;BME280;70472;47.592;17.640;2024-03-08T02:33:35;100075.06;;;5.30;93.99
81005;BME280;70472;47.592;17.640;2024-03-08T02:34:08;100076.03;;;5.29;94.18
81005;BME280;70472;47.592;17.640;2024-03-08T02:34:40;100069.44;;;5.24;93.83
81005;BME280;70472;47.592;17.640;2024-03-08T02:35:13;100076.16;;;5.28;94.31
81005;BME280;70472;47.592;17.640;2024-03-08T02:35:46;100070.72;;;5.29;94.03
81005;BME280;70472;47.592;17.640;2024-03-08T02:36:19;100074.47;;;5.27;93.63
81005;BME280;70472;47.592;17.640;2024-03-08T02:36:51;100069.28;;;5.25;93.51
81005;BME280;70472;47.592;17.640;2024-03-08T02:37:24;100075.06;;;5.30;94.14
81005;BME280;70472;47.592;17.640;2024-03-08T02:37:56;100074.06;;;5.31;93.98
81005;BME280;70472;47.592;17.640;2024-03-08T02:38:28;100072.97;;;5.34;94.41
81005;BME280;70472;47.592;17.640;2024-03-08T02:39:04;100075.63;;;5.34;94.04
81005;BME280;70472;47.592;17.640;2024-03-08T02:39:37;100073.50;;;5.28;94.52
81005;BME280;70472;47.592;17.640;2024-03-08T02:40:10;100074.47;;;5.27;94.33
81005;BME280;70472;47.592;17.640;2024-03-08T02:40:50;100069.28;;;5.25;94.72
81005;BME280;70472;47.592;17.640;2024-03-08T02:41:23;100067.22;;;5.29;94.35
81005;BME280;70472;47.592;17.640;2024-03-08T02:41:55;100073.38;;;5.29;94.29
81005;BME280;70472;47.592;17.640;2024-03-08T02:42:28;100070.44;;;5.32;94.17
81005;BME280;70472;47.592;17.640;2024-03-08T02:43:00;100067.50;;;5.35;94.88
81005;BME280;70472;47.592;17.640;2024-03-08T02:43:33;100070.31;;;5.34;94.31
81005;BME280;70472;47.592;17.640;2024-03-08T02:44:05;100071.56;;;5.30;94.80
81005;BME280;70472;47.592;17.640;2024-03-08T02:44:37;100068.72;;;5.22;94.02
81005;BME280;70472;47.592;17.640;2024-03-08T02:45:10;100061.69;;;5.21;94.58
81005;BME280;70472;47.592;17.640;2024-03-08T02:45:43;100064.94;;;5.24;94.51
81005;BME280;70472;47.592;17.640;2024-03-08T02:46:15;100066.38;;;5.28;94.72
81005;BME280;70472;47.592;17.640;2024-03-08T02:46:48;100074.06;;;5.31;94.60
81005;BME280;70472;47.592;17.640;2024-03-08T02:47:20;100072.38;;;5.30;94.12
81005;BME280;70472;47.592;17.640;2024-03-08T02:47:54;100068.06;;;5.29;94.70
81005;BME280;70472;47.592;17.640;2024-03-08T02:48:26;100073.09;;;5.32;94.57
81005;BME280;70472;47.592;17.640;2024-03-08T02:48:59;100075.50;;;5.35;93.93
81005;BME280;70472;47.592;17.640;2024-03-08T02:49:31;100066.53;;;5.36;94.27
81005;BME280;70472;47.592;17.640;2024-03-08T02:50:07;100072.25;;;5.32;94.46
81005;BME280;70472;47.592;17.640;2024-03-08T02:50:40;100073.22;;;5.31;94.65
81005;BME280;70472;47.592;17.640;2024-03-08T02:51:12;100070.44;;;5.32;94.81
81005;BME280;70472;47.592;17.640;2024-03-08T02:51:45;100075.50;;;5.35;94.29
81005;BME280;70472;47.592;17.640;2024-03-08T02:52:18;100071.84;;;5.36;94.83